sensor_id;sensor_type;location;lat;lon;timestamp;pressure;altitude;pressure_sealevel;temperature;humidity
73748;BME280;62056;52.130;5.428;2022-09-13T00:01:24;101210.22;;;19.60;65.59
73748;BME280;62056;52.130;5.428;2022-09-13T00:03:51;101212.56;;;19.62;65.54
73748;BME280;62056;52.130;5.428;2022-09-13T00:06:18;101202.91;;;19.61;65.38
73748;BME280;62056;52.130;5.428;2022-09-13T00:08:45;101210.22;;;19.60;65.44
73748;BME280;62056;52.130;5.428;2022-09-13T00:11:19;101205.50;;;19.57;65.62
73748;BME280;62056;52.130;5.428;2022-09-13T00:13:46;101209.34;;;19.56;65.20
73748;BME280;62056;52.130;5.428;2022-09-13T00:16:15;101213.47;;;19.54;65.39
73748;BME280;62056;52.130;5.428;2022-09-13T00:18:42;101211.91;;;19.53;65.80
73748;BME280;62056;52.130;5.428;2022-09-13T00:21:12;101210.00;;;19.53;65.61
73748;BME280;62056;52.130;5.428;2022-09-13T00:23:42;101203.38;;;19.51;65.70
73748;BME280;62056;52.130;5.428;2022-09-13T00:26:12;101202.94;;;19.49;65.76
73748;BME280;62056;52.130;5.428;2022-09-13T00:28:39;101196.75;;;19.48;66.03
73748;BME280;62056;52.130;5.428;2022-09-13T00:31:08;101183.59;;;19.47;65.57
73748;BME280;62056;52.130;5.428;2022-09-13T00:33:35;101187.84;;;19.48;66.02
73748;BME280;62056;52.130;5.428;2022-09-13T00:36:06;101200.88;;;19.46;65.67
73748;BME280;62056;52.130;5.428;2022-09-13T00:38:37;101209.09;;;19.37;66.59
73748;BME280;62056;52.130;5.428;2022-09-13T00:41:06;101200.09;;;19.33;66.60
73748;BME280;62056;52.130;5.428;2022-09-13T00:46:15;101191.56;;;19.31;66.98
73748;BME280;62056;52.130;5.428;2022-09-13T00:48:44;101199.19;;;19.29;67.28
73748;BME280;62056;52.130;5.428;2022-09-13T00:51:12;101194.50;;;19.26;67.11
73748;BME280;62056;52.130;5.428;2022-09-13T00:53:43;101207.84;;;19.22;66.90
73748;BME280;62056;52.130;5.428;2022-09-13T00:56:24;101194.25;;;19.18;68.39
73748;BME280;62056;52.130;5.428;2022-09-13T00:58:56;101188.41;;;19.16;68.03
73748;BME280;62056;52.130;5.428;2022-09-13T01:01:30;101186.84;;;19.15;68.19
73748;BME280;62056;52.130;5.428;2022-09-13T01:03:59;101176.72;;;19.12;67.90
73748;BME280;62056;52.130;5.428;2022-09-13T01:06:28;101190.19;;;19.12;68.21
73748;BME280;62056;52.130;5.428;2022-09-13T01:08:56;101198.28;;;19.12;67.81
73748;BME280;62056;52.130;5.428;2022-09-13T01:11:33;101199.28;;;19.08;68.59
73748;BME280;62056;52.130;5.428;2022-09-13T01:14:04;101195.81;;;19.07;68.34
73748;BME280;62056;52.130;5.428;2022-09-13T01:16:32;101191.22;;;19.08;67.84
73748;BME280;62056;52.130;5.428;2022-09-13T01:18:59;101193.13;;;19.07;68.34
73748;BME280;62056;52.130;5.428;2022-09-13T01:21:51;101189.97;;;19.05;70.39
73748;BME280;62056;52.130;5.428;2022-09-13T01:30:15;101198.28;;;19.00;69.28
73748;BME280;62056;52.130;5.428;2022-09-13T01:33:10;101193.69;;;19.00;68.91
73748;BME280;62056;52.130;5.428;2022-09-13T01:47:05;101202.28;;;18.82;70.22
73748;BME280;62056;52.130;5.428;2022-09-13T01:57:41;101183.22;;;18.87;69.51
73748;BME280;62056;52.130;5.428;2022-09-13T02:00:14;101183.66;;;18.89;69.57
73748;BME280;62056;52.130;5.428;2022-09-13T02:05:46;101191.41;;;18.90;70.22
73748;BME280;62056;52.130;5.428;2022-09-13T02:08:35;101191.28;;;18.87;69.55
73748;BME280;62056;52.130;5.428;2022-09-13T02:11:10;101185.91;;;18.87;69.32
73748;BME280;62056;52.130;5.428;2022-09-13T02:13:41;101182.09;;;18.88;69.11
73748;BME280;62056;52.130;5.428;2022-09-13T02:16:15;101178.28;;;18.89;69.63
73748;BME280;62056;52.130;5.428;2022-09-13T02:18:48;101173.22;;;18.87;69.83
73748;BME280;62056;52.130;5.428;2022-09-13T02:21:25;101176.72;;;18.88;70.02
73748;BME280;62056;52.130;5.428;2022-09-13T02:23:59;101177.38;;;18.85;69.59
73748;BME280;62056;52.130;5.428;2022-09-13T02:26:28;101179.59;;;18.83;69.33
73748;BME280;62056;52.130;5.428;2022-09-13T02:28:57;101182.63;;;18.81;69.69
73748;BME280;62056;52.130;5.428;2022-09-13T02:31:31;101179.00;;;18.77;69.80
73748;BME280;62056;52.130;5.428;2022-09-13T02:34:09;101183.94;;;18.75;70.37
73748;BME280;62056;52.130;5.428;2022-09-13T02:36:39;101190.44;;;18.74;69.67
73748;BME280;62056;52.130;5.428;2022-09-13T02:39:11;101192.69;;;18.72;70.52
73748;BME280;62056;52.130;5.428;2022-09-13T02:42:09;101194.59;;;18.71;71.44
73748;BME280;62056;52.130;5.428;2022-09-13T02:44:42;101196.94;;;18.73;70.16
73748;BME280;62056;52.130;5.428;2022-09-13T02:47:16;101192.38;;;18.73;70.03
73748;BME280;62056;52.130;5.428;2022-09-13T02:52:35;101201.09;;;18.70;70.07
73748;BME280;62056;52.130;5.428;2022-09-13T02:55:08;101192.91;;;18.67;70.12
73748;BME280;62056;52.130;5.428;2022-09-13T03:00:31;101200.06;;;18.63;70.38
73748;BME280;62056;52.130;5.428;2022-09-13T03:02:59;101193.44;;;18.60;70.40
73748;BME280;62056;52.130;5.428;2022-09-13T03:05:28;101193.56;;;18.64;70.15
73748;BME280;62056;52.130;5.428;2022-09-13T03:07:54;101190.09;;;18.63;70.34
73748;BME280;62056;52.130;5.428;2022-09-13T03:10:21;101188.50;;;18.62;70.44
73748;BME280;62056;52.130;5.428;2022-09-13T03:13:14;101183.91;;;18.63;71.82
73748;BME280;62056;52.130;5.428;2022-09-13T03:16:07;101182.31;;;18.61;71.49
73748;BME280;62056;52.130;5.428;2022-09-13T03:18:51;101189.31;;;18.63;71.40
73748;BME280;62056;52.130;5.428;2022-09-13T03:24:50;101189.31;;;18.63;71.96
73748;BME280;62056;52.130;5.428;2022-09-13T03:30:11;101182.31;;;18.61;70.00
73748;BME280;62056;52.130;5.428;2022-09-13T03:35:53;101173.00;;;18.59;70.03
73748;BME280;62056;52.130;5.428;2022-09-13T03:38:33;101181.88;;;18.59;71.96
73748;BME280;62056;52.130;5.428;2022-09-13T03:41:17;101187.59;;;18.58;72.10
73748;BME280;62056;52.130;5.428;2022-09-13T03:43:50;101181.41;;;18.57;70.41
73748;BME280;62056;52.130;5.428;2022-09-13T03:46:26;101179.06;;;18.56;71.85
73748;BME280;62056;52.130;5.428;2022-09-13T03:48:57;101172.88;;;18.55;70.86
73748;BME280;62056;52.130;5.428;2022-09-13T03:51:27;101179.41;;;18.54;70.55
73748;BME280;62056;52.130;5.428;2022-09-13T03:53:57;101177.03;;;18.53;70.55
73748;BME280;62056;52.130;5.428;2022-09-13T03:56:26;101166.25;;;18.53;70.81
73748;BME280;62056;52.130;5.428;2022-09-13T03:58:53;101165.81;;;18.51;70.67
73748;BME280;62056;52.130;5.428;2022-09-13T04:01:22;101168.03;;;18.49;70.78
73748;BME280;62056;52.130;5.428;2022-09-13T04:03:50;101173.44;;;18.49;70.68
73748;BME280;62056;52.130;5.428;2022-09-13T04:06:23;101172.28;;;18.50;70.84
73748;BME280;62056;52.130;5.428;2022-09-13T04:08:50;101175.34;;;18.48;70.87
73748;BME280;62056;52.130;5.428;2022-09-13T04:11:18;101179.47;;;18.46;71.06
73748;BME280;62056;52.130;5.428;2022-09-13T04:13:47;101177.91;;;18.45;71.33
73748;BME280;62056;52.130;5.428;2022-09-13T04:16:13;101171.75;;;18.44;71.27
73748;BME280;62056;52.130;5.428;2022-09-13T04:18:41;101180.47;;;18.41;71.21
73748;BME280;62056;52.130;5.428;2022-09-13T04:21:08;101174.97;;;18.37;71.60
73748;BME280;62056;52.130;5.428;2022-09-13T04:23:35;101183.38;;;18.36;71.65
73748;BME280;62056;52.130;5.428;2022-09-13T04:26:03;101180.53;;;18.32;71.67
73748;BME280;62056;52.130;5.428;2022-09-13T04:28:30;101174.38;;;18.32;71.75
73748;BME280;62056;52.130;5.428;2022-09-13T04:31:00;101186.25;;;18.31;71.80
73748;BME280;62056;52.130;5.428;2022-09-13T04:33:27;101188.84;;;18.27;71.59
73748;BME280;62056;52.130;5.428;2022-09-13T04:35:56;101188.38;;;18.25;72.06
73748;BME280;62056;52.130;5.428;2022-09-13T04:38:23;101192.50;;;18.23;71.80
73748;BME280;62056;52.130;5.428;2022-09-13T04:40:54;101194.25;;;18.18;72.47
73748;BME280;62056;52.130;5.428;2022-09-13T04:43:22;101196.94;;;18.18;72.22
73748;BME280;62056;52.130;5.428;2022-09-13T04:45:49;101204.25;;;18.18;72.15
73748;BME280;62056;52.130;5.428;2022-09-13T04:48:16;101209.94;;;18.16;72.45
73748;BME280;62056;52.130;5.428;2022-09-13T04:50:44;101213.78;;;18.15;72.22
73748;BME280;62056;52.130;5.428;2022-09-13T04:53:10;101214.88;;;18.14;72.49
73748;BME280;62056;52.130;5.428;2022-09-13T04:55:37;101215.69;;;18.15;72.39
73748;BME280;62056;52.130;5.428;2022-09-13T04:58:04;101222.16;;;18.14;72.77
73748;BME280;62056;52.130;5.428;2022-09-13T05:00:31;101225.19;;;18.12;72.69
73748;BME280;62056;52.130;5.428;2022-09-13T05:02:58;101219.78;;;18.12;72.69
73748;BME280;62056;52.130;5.428;2022-09-13T05:05:24;101218.69;;;18.13;72.68
73748;BME280;62056;52.130;5.428;2022-09-13T05:07:51;101220.25;;;18.14;72.89
73748;BME280;62056;52.130;5.428;2022-09-13T05:10:18;101216.78;;;18.14;72.87
73748;BME280;62056;52.130;5.428;2022-09-13T05:12:45;101224.53;;;18.15;72.82
73748;BME280;62056;52.130;5.428;2022-09-13T05:15:11;101221.06;;;18.15;72.51
73748;BME280;62056;52.130;5.428;2022-09-13T05:17:39;101216.78;;;18.14;72.51
73748;BME280;62056;52.130;5.428;2022-09-13T05:20:07;101214.56;;;18.16;72.56
73748;BME280;62056;52.130;5.428;2022-09-13T05:22:33;101217.69;;;18.18;72.75
73748;BME280;62056;52.130;5.428;2022-09-13T05:25:00;101220.41;;;18.18;72.91
73748;BME280;62056;52.130;5.428;2022-09-13T05:27:26;101216.59;;;18.19;72.93
73748;BME280;62056;52.130;5.428;2022-09-13T05:29:53;101225.00;;;18.17;72.85
73748;BME280;62056;52.130;5.428;2022-09-13T05:32:19;101226.91;;;18.17;72.71
73748;BME280;62056;52.130;5.428;2022-09-13T05:34:46;101231.47;;;18.16;72.69
73748;BME280;62056;52.130;5.428;2022-09-13T05:37:13;101225.31;;;18.16;72.80
73748;BME280;62056;52.130;5.428;2022-09-13T05:39:39;101236.88;;;18.16;73.03
73748;BME280;62056;52.130;5.428;2022-09-13T05:42:27;101230.69;;;18.16;72.98
73748;BME280;62056;52.130;5.428;2022-09-13T05:44:54;101238.44;;;18.17;72.91
73748;BME280;62056;52.130;5.428;2022-09-13T05:47:21;101239.22;;;18.18;73.09
73748;BME280;62056;52.130;5.428;2022-09-13T05:49:47;101238.59;;;18.21;73.21
73748;BME280;62056;52.130;5.428;2022-09-13T05:52:34;101242.06;;;18.22;73.39
73748;BME280;62056;52.130;5.428;2022-09-13T05:55:01;101243.97;;;18.21;73.39
73748;BME280;62056;52.130;5.428;2022-09-13T05:57:27;101237.78;;;18.20;73.29
73748;BME280;62056;52.130;5.428;2022-09-13T05:59:55;101240.47;;;18.20;73.36
73748;BME280;62056;52.130;5.428;2022-09-13T06:02:23;101244.28;;;18.19;73.73
73748;BME280;62056;52.130;5.428;2022-09-13T06:04:50;101243.97;;;18.21;73.45
73748;BME280;62056;52.130;5.428;2022-09-13T06:07:19;101247.13;;;18.23;73.94
73748;BME280;62056;52.130;5.428;2022-09-13T06:09:45;101243.31;;;18.24;74.04
73748;BME280;62056;52.130;5.428;2022-09-13T06:12:12;101251.06;;;18.26;74.04
73748;BME280;62056;52.130;5.428;2022-09-13T06:14:39;101247.59;;;18.25;74.46
73748;BME280;62056;52.130;5.428;2022-09-13T06:17:06;101252.63;;;18.27;74.55
73748;BME280;62056;52.130;5.428;2022-09-13T06:19:33;101243.44;;;18.28;74.67
73748;BME280;62056;52.130;5.428;2022-09-13T06:22:00;101251.97;;;18.30;74.84
73748;BME280;62056;52.130;5.428;2022-09-13T06:24:27;101252.13;;;18.33;74.83
73748;BME280;62056;52.130;5.428;2022-09-13T06:26:53;101238.31;;;18.35;74.72
73748;BME280;62056;52.130;5.428;2022-09-13T06:29:20;101246.84;;;18.37;74.74
73748;BME280;62056;52.130;5.428;2022-09-13T06:31:46;101247.31;;;18.39;74.88
73748;BME280;62056;52.130;5.428;2022-09-13T06:34:13;101248.53;;;18.41;74.94
73748;BME280;62056;52.130;5.428;2022-09-13T06:36:41;101253.28;;;18.45;74.69
73748;BME280;62056;52.130;5.428;2022-09-13T06:39:08;101249.47;;;18.46;74.95
73748;BME280;62056;52.130;5.428;2022-09-13T06:41:35;101251.06;;;18.47;75.04
73748;BME280;62056;52.130;5.428;2022-09-13T06:44:02;101258.81;;;18.48;75.35
73748;BME280;62056;52.130;5.428;2022-09-13T06:46:32;101257.69;;;18.49;75.52
73748;BME280;62056;52.130;5.428;2022-09-13T06:49:01;101259.72;;;18.52;75.42
73748;BME280;62056;52.130;5.428;2022-09-13T06:51:29;101260.50;;;18.53;75.53
73748;BME280;62056;52.130;5.428;2022-09-13T06:53:56;101259.06;;;18.55;75.53
73748;BME280;62056;52.130;5.428;2022-09-13T06:56:25;101259.84;;;18.56;75.53
73748;BME280;62056;52.130;5.428;2022-09-13T06:58:57;101249.06;;;18.56;76.07
73748;BME280;62056;52.130;5.428;2022-09-13T07:01:32;101250.78;;;18.60;76.12
73748;BME280;62056;52.130;5.428;2022-09-13T07:04:07;101254.72;;;18.63;75.74
73748;BME280;62056;52.130;5.428;2022-09-13T07:06:37;101243.28;;;18.66;75.65
73748;BME280;62056;52.130;5.428;2022-09-13T07:09:06;101249.13;;;18.68;75.59
73748;BME280;62056;52.130;5.428;2022-09-13T07:11:35;101253.84;;;18.71;75.67
73748;BME280;62056;52.130;5.428;2022-09-13T07:14:03;101255.09;;;18.74;75.73
73748;BME280;62056;52.130;5.428;2022-09-13T07:16:31;101255.22;;;18.77;76.66
73748;BME280;62056;52.130;5.428;2022-09-13T07:19:01;101248.09;;;18.82;76.51
73748;BME280;62056;52.130;5.428;2022-09-13T07:21:28;101237.41;;;18.85;76.67
73748;BME280;62056;52.130;5.428;2022-09-13T07:23:55;101246.09;;;18.91;77.06
73748;BME280;62056;52.130;5.428;2022-09-13T07:26:23;101239.25;;;18.93;77.19
73748;BME280;62056;52.130;5.428;2022-09-13T07:28:52;101240.97;;;18.98;77.74
73748;BME280;62056;52.130;5.428;2022-09-13T07:31:25;101243.75;;;19.01;78.00
73748;BME280;62056;52.130;5.428;2022-09-13T07:33:56;101244.66;;;19.06;78.00
73748;BME280;62056;52.130;5.428;2022-09-13T07:36:24;101258.72;;;19.11;78.37
73748;BME280;62056;52.130;5.428;2022-09-13T07:38:51;101249.94;;;19.14;79.10
73748;BME280;62056;52.130;5.428;2022-09-13T07:41:23;101255.47;;;19.18;78.74
73748;BME280;62056;52.130;5.428;2022-09-13T07:43:50;101258.28;;;19.21;78.63
73748;BME280;62056;52.130;5.428;2022-09-13T07:46:25;101265.03;;;19.28;80.50
73748;BME280;62056;52.130;5.428;2022-09-13T07:48:54;101269.44;;;19.32;78.84
73748;BME280;62056;52.130;5.428;2022-09-13T07:51:24;101266.06;;;19.35;79.23
73748;BME280;62056;52.130;5.428;2022-09-13T07:53:54;101264.69;;;19.41;79.01
73748;BME280;62056;52.130;5.428;2022-09-13T07:56:33;101261.81;;;19.47;79.22
73748;BME280;62056;52.130;5.428;2022-09-13T07:59:01;101275.50;;;19.54;79.54
73748;BME280;62056;52.130;5.428;2022-09-13T08:01:33;101276.97;;;19.64;79.70
73748;BME280;62056;52.130;5.428;2022-09-13T08:04:03;101291.16;;;19.73;79.74
73748;BME280;62056;52.130;5.428;2022-09-13T08:06:31;101277.59;;;19.81;79.68
73748;BME280;62056;52.130;5.428;2022-09-13T08:08:58;101279.38;;;19.90;79.61
73748;BME280;62056;52.130;5.428;2022-09-13T08:11:40;101285.44;;;19.99;79.20
73748;BME280;62056;52.130;5.428;2022-09-13T08:14:10;101280.22;;;20.06;79.00
73748;BME280;62056;52.130;5.428;2022-09-13T08:16:38;101284.28;;;20.12;78.79
73748;BME280;62056;52.130;5.428;2022-09-13T08:19:06;101277.19;;;20.20;78.76
73748;BME280;62056;52.130;5.428;2022-09-13T08:21:36;101280.09;;;20.27;78.45
73748;BME280;62056;52.130;5.428;2022-09-13T08:24:04;101281.34;;;20.30;77.98
73748;BME280;62056;52.130;5.428;2022-09-13T08:26:34;101281.44;;;20.33;78.17
73748;BME280;62056;52.130;5.428;2022-09-13T08:29:03;101280.31;;;20.34;77.97
73748;BME280;62056;52.130;5.428;2022-09-13T08:31:32;101287.63;;;20.34;77.80
73748;BME280;62056;52.130;5.428;2022-09-13T08:34:01;101283.44;;;20.36;77.67
73748;BME280;62056;52.130;5.428;2022-09-13T08:36:29;101281.19;;;20.38;77.71
73748;BME280;62056;52.130;5.428;2022-09-13T08:38:58;101282.41;;;20.41;77.53
73748;BME280;62056;52.130;5.428;2022-09-13T08:42:00;101280.16;;;20.43;77.81
73748;BME280;62056;52.130;5.428;2022-09-13T08:44:33;101282.19;;;20.46;77.47
73748;BME280;62056;52.130;5.428;2022-09-13T08:49:53;101282.28;;;20.50;76.84
73748;BME280;62056;52.130;5.428;2022-09-13T08:52:48;101281.94;;;20.51;76.84
73748;BME280;62056;52.130;5.428;2022-09-13T08:55:26;101277.09;;;20.57;76.96
73748;BME280;62056;52.130;5.428;2022-09-13T09:00:39;101283.97;;;20.67;76.98
73748;BME280;62056;52.130;5.428;2022-09-13T09:03:31;101290.59;;;20.69;76.28
73748;BME280;62056;52.130;5.428;2022-09-13T09:06:01;101289.88;;;20.72;75.89
73748;BME280;62056;52.130;5.428;2022-09-13T09:11:11;101300.53;;;20.81;75.71
73748;BME280;62056;52.130;5.428;2022-09-13T09:13:48;101303.78;;;20.87;75.25
73748;BME280;62056;52.130;5.428;2022-09-13T09:16:34;101306.25;;;20.92;74.62
73748;BME280;62056;52.130;5.428;2022-09-13T09:19:20;101300.16;;;20.95;74.61
73748;BME280;62056;52.130;5.428;2022-09-13T09:21:50;101303.72;;;20.99;74.16
73748;BME280;62056;52.130;5.428;2022-09-13T09:24:21;101312.19;;;20.97;73.49
73748;BME280;62056;52.130;5.428;2022-09-13T09:26:49;101314.22;;;21.00;73.28
73748;BME280;62056;52.130;5.428;2022-09-13T09:29:20;101311.06;;;20.98;72.75
73748;BME280;62056;52.130;5.428;2022-09-13T09:37:22;101310.97;;;20.95;71.73
73748;BME280;62056;52.130;5.428;2022-09-13T09:39:53;101301.19;;;20.90;72.06
73748;BME280;62056;52.130;5.428;2022-09-13T09:42:24;101290.81;;;20.92;72.08
73748;BME280;62056;52.130;5.428;2022-09-13T09:44:55;101308.16;;;20.91;72.19
73748;BME280;62056;52.130;5.428;2022-09-13T09:47:27;101301.53;;;20.89;72.04
73748;BME280;62056;52.130;5.428;2022-09-13T09:50:03;101300.75;;;20.88;71.40
73748;BME280;62056;52.130;5.428;2022-09-13T09:55:32;101291.50;;;20.89;71.45
73748;BME280;62056;52.130;5.428;2022-09-13T09:58:01;101287.06;;;20.97;71.73
73748;BME280;62056;52.130;5.428;2022-09-13T10:03:23;101292.31;;;21.06;70.47
73748;BME280;62056;52.130;5.428;2022-09-13T10:06:04;101279.25;;;21.08;70.53
73748;BME280;62056;52.130;5.428;2022-09-13T10:08:34;101285.41;;;21.08;70.30
73748;BME280;62056;52.130;5.428;2022-09-13T10:11:02;101285.84;;;21.10;70.43
73748;BME280;62056;52.130;5.428;2022-09-13T10:13:30;101279.00;;;21.13;69.95
73748;BME280;62056;52.130;5.428;2022-09-13T10:16:26;101286.94;;;21.21;69.93
73748;BME280;62056;52.130;5.428;2022-09-13T10:19:19;101285.88;;;21.26;69.51
73748;BME280;62056;52.130;5.428;2022-09-13T10:22:02;101288.69;;;21.30;69.29
73748;BME280;62056;52.130;5.428;2022-09-13T10:24:31;101284.59;;;21.36;68.94
73748;BME280;62056;52.130;5.428;2022-09-13T10:26:58;101276.47;;;21.36;68.85
73748;BME280;62056;52.130;5.428;2022-09-13T10:29:27;101282.75;;;21.40;68.93
73748;BME280;62056;52.130;5.428;2022-09-13T10:31:54;101281.31;;;21.42;68.18
73748;BME280;62056;52.130;5.428;2022-09-13T10:34:26;101281.75;;;21.45;68.23
73748;BME280;62056;52.130;5.428;2022-09-13T10:37:05;101285.31;;;21.49;68.47
73748;BME280;62056;52.130;5.428;2022-09-13T10:40:11;101280.88;;;21.56;68.14
73748;BME280;62056;52.130;5.428;2022-09-13T10:42:51;101287.41;;;21.55;67.71
73748;BME280;62056;52.130;5.428;2022-09-13T10:45:24;101278.16;;;21.56;67.85
73748;BME280;62056;52.130;5.428;2022-09-13T10:48:09;101280.59;;;21.61;67.97
73748;BME280;62056;52.130;5.428;2022-09-13T10:50:37;101274.91;;;21.67;67.95
73748;BME280;62056;52.130;5.428;2022-09-13T10:53:42;101282.06;;;21.75;67.31
73748;BME280;62056;52.130;5.428;2022-09-13T10:56:24;101272.03;;;21.75;65.85
73748;BME280;62056;52.130;5.428;2022-09-13T10:59:29;101282.66;;;21.84;67.02
73748;BME280;62056;52.130;5.428;2022-09-13T11:04:49;101272.59;;;22.00;66.36
73748;BME280;62056;52.130;5.428;2022-09-13T11:07:44;101269.59;;;22.06;66.15
73748;BME280;62056;52.130;5.428;2022-09-13T11:15:59;101254.81;;;22.19;64.99
73748;BME280;62056;52.130;5.428;2022-09-13T11:21:25;101259.25;;;22.27;64.28
73748;BME280;62056;52.130;5.428;2022-09-13T11:26:33;101252.22;;;22.42;64.40
73748;BME280;62056;52.130;5.428;2022-09-13T11:32:28;101258.81;;;22.45;62.92
73748;BME280;62056;52.130;5.428;2022-09-13T11:38:14;101260.34;;;22.42;61.43
73748;BME280;62056;52.130;5.428;2022-09-13T11:41:12;101253.41;;;22.45;61.63
73748;BME280;62056;52.130;5.428;2022-09-13T11:43:54;101250.06;;;22.51;60.98
73748;BME280;62056;52.130;5.428;2022-09-13T11:54:58;101246.97;;;22.72;61.00
73748;BME280;62056;52.130;5.428;2022-09-13T11:57:32;101234.25;;;22.76;59.80
73748;BME280;62056;52.130;5.428;2022-09-13T12:05:29;101227.03;;;22.84;58.46
73748;BME280;62056;52.130;5.428;2022-09-13T12:08:12;101228.59;;;22.85;56.62
73748;BME280;62056;52.130;5.428;2022-09-13T12:10:51;101234.03;;;22.85;57.52
73748;BME280;62056;52.130;5.428;2022-09-13T12:13:28;101236.81;;;22.89;57.61
73748;BME280;62056;52.130;5.428;2022-09-13T12:16:06;101236.38;;;22.87;56.78
73748;BME280;62056;52.130;5.428;2022-09-13T12:18:43;101235.84;;;22.77;56.10
73748;BME280;62056;52.130;5.428;2022-09-13T12:21:23;101241.31;;;22.81;56.17
73748;BME280;62056;52.130;5.428;2022-09-13T12:23:59;101244.09;;;22.84;56.80
73748;BME280;62056;52.130;5.428;2022-09-13T12:26:34;101243.66;;;22.82;56.74
73748;BME280;62056;52.130;5.428;2022-09-13T12:31:46;101248.00;;;22.87;57.32
73748;BME280;62056;52.130;5.428;2022-09-13T12:34:24;101241.88;;;22.90;56.37
73748;BME280;62056;52.130;5.428;2022-09-13T12:37:04;101240.78;;;22.95;56.95
73748;BME280;62056;52.130;5.428;2022-09-13T12:39:39;101235.44;;;22.98;55.74
73748;BME280;62056;52.130;5.428;2022-09-13T12:42:38;101246.84;;;23.08;55.57
73748;BME280;62056;52.130;5.428;2022-09-13T12:56:33;101231.75;;;23.33;54.61
73748;BME280;62056;52.130;5.428;2022-09-13T13:01:55;101224.50;;;23.41;52.93
73748;BME280;62056;52.130;5.428;2022-09-13T13:04:27;101220.25;;;23.40;52.08
73748;BME280;62056;52.130;5.428;2022-09-13T13:06:58;101220.59;;;23.38;52.00
73748;BME280;62056;52.130;5.428;2022-09-13T13:09:39;101238.06;;;23.41;51.46
73748;BME280;62056;52.130;5.428;2022-09-13T13:12:35;101238.34;;;23.32;52.62
73748;BME280;62056;52.130;5.428;2022-09-13T13:20:43;101231.91;;;23.17;52.92
73748;BME280;62056;52.130;5.428;2022-09-13T13:33:54;101221.06;;;23.17;52.44
73748;BME280;62056;52.130;5.428;2022-09-13T13:36:26;101223.69;;;23.14;52.60
73748;BME280;62056;52.130;5.428;2022-09-13T13:38:58;101222.59;;;23.18;52.58
73748;BME280;62056;52.130;5.428;2022-09-13T13:44:00;101216.66;;;23.09;52.60
73748;BME280;62056;52.130;5.428;2022-09-13T13:46:31;101227.16;;;23.11;52.36
73748;BME280;62056;52.130;5.428;2022-09-13T13:59:55;101234.28;;;22.99;52.29
73748;BME280;62056;52.130;5.428;2022-09-13T14:02:32;101244.44;;;23.02;52.31
73748;BME280;62056;52.130;5.428;2022-09-13T14:13:21;101235.56;;;23.06;50.92
73748;BME280;62056;52.130;5.428;2022-09-13T14:21:34;101222.56;;;23.15;51.56
73748;BME280;62056;52.130;5.428;2022-09-13T14:24:14;101226.34;;;23.10;50.34
73748;BME280;62056;52.130;5.428;2022-09-13T14:26:48;101233.78;;;23.13;50.22
73748;BME280;62056;52.130;5.428;2022-09-13T14:29:18;101231.75;;;23.10;50.95
73748;BME280;62056;52.130;5.428;2022-09-13T14:31:52;101231.13;;;23.17;51.17
73748;BME280;62056;52.130;5.428;2022-09-13T14:34:34;101231.13;;;23.17;49.91
73748;BME280;62056;52.130;5.428;2022-09-13T14:37:17;101232.59;;;23.14;49.90
73748;BME280;62056;52.130;5.428;2022-09-13T14:40:10;101234.44;;;23.07;50.12
73748;BME280;62056;52.130;5.428;2022-09-13T14:42:43;101229.72;;;23.03;50.23
73748;BME280;62056;52.130;5.428;2022-09-13T14:50:24;101228.53;;;23.01;49.86
73748;BME280;62056;52.130;5.428;2022-09-13T14:52:58;101239.03;;;23.02;49.32
73748;BME280;62056;52.130;5.428;2022-09-13T14:55:30;101236.97;;;22.99;49.39
73748;BME280;62056;52.130;5.428;2022-09-13T14:58:02;101236.94;;;22.96;49.03
73748;BME280;62056;52.130;5.428;2022-09-13T15:00:33;101235.28;;;22.91;48.51
73748;BME280;62056;52.130;5.428;2022-09-13T15:03:03;101237.88;;;22.84;48.56
73748;BME280;62056;52.130;5.428;2022-09-13T15:05:38;101233.41;;;22.72;48.43
73748;BME280;62056;52.130;5.428;2022-09-13T15:10:56;101228.66;;;22.66;48.79
73748;BME280;62056;52.130;5.428;2022-09-13T15:13:22;101233.94;;;22.58;48.85
73748;BME280;62056;52.130;5.428;2022-09-13T15:15:50;101236.22;;;22.56;48.85
73748;BME280;62056;52.130;5.428;2022-09-13T15:23:27;101229.31;;;22.59;49.15
73748;BME280;62056;52.130;5.428;2022-09-13T15:31:08;101223.31;;;22.50;48.44
73748;BME280;62056;52.130;5.428;2022-09-13T15:33:37;101230.16;;;22.43;48.67
73748;BME280;62056;52.130;5.428;2022-09-13T15:41:33;101219.69;;;22.42;48.99
73748;BME280;62056;52.130;5.428;2022-09-13T15:44:07;101224.31;;;22.41;49.31
73748;BME280;62056;52.130;5.428;2022-09-13T15:46:50;101221.91;;;22.36;49.54
73748;BME280;62056;52.130;5.428;2022-09-13T15:49:24;101218.69;;;22.31;49.99
73748;BME280;62056;52.130;5.428;2022-09-13T15:51:56;101225.06;;;22.22;50.53
73748;BME280;62056;52.130;5.428;2022-09-13T15:54:25;101223.34;;;22.14;51.45
73748;BME280;62056;52.130;5.428;2022-09-13T15:56:58;101214.66;;;22.05;51.53
73748;BME280;62056;52.130;5.428;2022-09-13T15:59:26;101212.31;;;22.03;51.46
73748;BME280;62056;52.130;5.428;2022-09-13T16:01:52;101211.81;;;21.98;51.28
73748;BME280;62056;52.130;5.428;2022-09-13T16:04:21;101207.00;;;21.91;51.90
73748;BME280;62056;52.130;5.428;2022-09-13T16:06:50;101206.88;;;21.84;52.27
73748;BME280;62056;52.130;5.428;2022-09-13T16:09:23;101206.34;;;21.78;52.75
73748;BME280;62056;52.130;5.428;2022-09-13T16:11:51;101207.78;;;21.72;53.01
73748;BME280;62056;52.130;5.428;2022-09-13T16:14:18;101213.09;;;21.69;53.01
73748;BME280;62056;52.130;5.428;2022-09-13T16:16:45;101214.09;;;21.60;53.68
73748;BME280;62056;52.130;5.428;2022-09-13T16:19:18;101219.41;;;21.57;53.63
73748;BME280;62056;52.130;5.428;2022-09-13T16:21:47;101218.47;;;21.49;54.09